Time;durP1;ratioP1;P1;durP2;ratioP2;P2;SDS_P1;SDS_P2;PMS_P1;PMS_P2;Temp;Humidity;BMP_temperature;BMP_pressure;BME280_temperature;BME280_humidity;BME280_pressure;Samples;Min_cycle;Max_cycle;Signal;HPM_P1;HPM_P2
2024/02/25 00:02:24;;;;;;;8.68;3.22;;;5.10;65.60;;;;;;5071639;28;20037;-70
2024/02/25 00:04:50;;;;;;;5.88;3.90;;;5.10;65.70;;;;;;5083294;28;20041;-73
2024/02/25 00:07:16;;;;;;;5.90;3.05;;;5.10;66.00;;;;;;5060081;28;20125;-73
2024/02/25 00:09:42;;;;;;;5.35;2.80;;;5.10;66.00;;;;;;5080743;28;20044;-73
2024/02/25 00:12:08;;;;;;;6.05;3.65;;;5.10;66.20;;;;;;5068877;28;20037;-71
2024/02/25 00:14:34;;;;;;;7.10;3.72;;;5.00;66.70;;;;;;5084637;28;20031;-70
2024/02/25 00:17:00;;;;;;;7.45;2.83;;;4.90;67.20;;;;;;5089732;28;20074;-70
2024/02/25 00:19:29;;;;;;;14.52;1.67;;;4.90;66.80;;;;;;5078349;28;20382;-70
2024/02/25 00:21:56;;;;;;;5.47;3.53;;;4.90;66.70;;;;;;5082281;28;20040;-71
2024/02/25 00:24:22;;;;;;;4.20;2.38;;;4.80;66.90;;;;;;5077565;28;20020;-73
2024/02/25 00:26:48;;;;;;;3.90;2.78;;;4.80;66.80;;;;;;5087887;28;20119;-73
2024/02/25 00:29:15;;;;;;;3.13;1.92;;;4.70;66.80;;;;;;5089530;28;20029;-73
2024/02/25 00:31:42;;;;;;;2.53;1.60;;;4.80;67.20;;;;;;5089284;28;20040;-73
2024/02/25 00:34:09;;;;;;;5.72;2.13;;;4.70;67.10;;;;;;5089404;28;20545;-70
2024/02/25 00:36:35;;;;;;;5.90;2.20;;;4.70;67.20;;;;;;5090913;28;20031;-70
2024/02/25 00:39:02;;;;;;;;;;;4.70;66.60;;;;;;5090277;28;20082;-73
2024/02/25 00:41:28;;;;;;;8.32;2.58;;;4.60;67.40;;;;;;5092262;28;19974;-70
2024/02/25 00:43:54;;;;;;;3.30;1.75;;;4.60;67.30;;;;;;5094356;28;20043;-71
2024/02/25 00:46:20;;;;;;;3.60;2.55;;;4.50;67.60;;;;;;5093088;28;20512;-70
2024/02/25 00:48:46;;;;;;;2.70;1.70;;;4.60;67.30;;;;;;5093087;28;20047;-73
2024/02/25 00:51:13;;;;;;;3.92;1.33;;;4.50;67.50;;;;;;5094018;28;20043;-73
2024/02/25 00:53:39;;;;;;;2.35;1.20;;;4.50;67.50;;;;;;5094636;28;20046;-71
2024/02/25 00:56:05;;;;;;;0.80;0.68;;;4.40;67.50;;;;;;5092976;28;20037;-73
2024/02/25 00:58:31;;;;;;;2.63;2.08;;;4.40;66.90;;;;;;5094415;28;20106;-70
2024/02/25 01:00:58;;;;;;;7.13;2.05;;;4.40;67.50;;;;;;5092506;28;20032;-73
2024/02/25 01:03:24;;;;;;;2.65;1.70;;;4.40;67.70;;;;;;5093710;28;20064;-70
2024/02/25 01:05:50;;;;;;;0.82;0.68;;;4.40;68.00;;;;;;5094255;28;20036;-70
2024/02/25 01:08:16;;;;;;;5.13;1.83;;;4.40;68.00;;;;;;5093047;28;20048;-70
2024/02/25 01:10:42;;;;;;;3.40;1.35;;;4.30;67.90;;;;;;5092361;28;20040;-71
2024/02/25 01:13:08;;;;;;;3.10;2.05;;;4.30;68.00;;;;;;5092751;28;20120;-73
2024/02/25 01:15:34;;;;;;;3.10;1.65;;;4.30;67.60;;;;;;5094036;28;20036;-70
2024/02/25 01:18:00;;;;;;;1.35;0.77;;;4.30;67.50;;;;;;5094391;28;20037;-73
2024/02/25 01:20:26;;;;;;;4.70;2.40;;;4.20;67.50;;;;;;5093429;28;20044;-72
2024/02/25 01:22:52;;;;;;;4.15;2.00;;;4.10;67.60;;;;;;5094049;28;20040;-71
2024/02/25 01:25:18;;;;;;;10.50;4.10;;;4.10;67.90;;;;;;5093667;28;20493;-71
2024/02/25 01:27:47;;;;;;;8.13;4.90;;;4.10;68.00;;;;;;5093904;28;20039;-73
2024/02/25 01:30:14;;;;;;;14.57;4.40;;;4.10;67.80;;;;;;5091964;28;20062;-73
2024/02/25 01:32:40;;;;;;;6.30;3.20;;;4.10;67.50;;;;;;5092391;28;20536;-71
2024/02/25 01:35:06;;;;;;;5.65;3.03;;;4.10;67.60;;;;;;5093372;28;20032;-73
2024/02/25 01:37:32;;;;;;;8.27;4.05;;;4.00;66.70;;;;;;5093727;28;20090;-72
2024/02/25 01:39:58;;;;;;;3.95;1.88;;;4.00;67.00;;;;;;5093541;28;20032;-73
2024/02/25 01:42:24;;;;;;;3.20;1.55;;;4.00;67.10;;;;;;5091528;28;20047;-73
2024/02/25 01:45:10;;;;;;;5.20;2.65;;;4.00;67.10;;;;;;5093188;28;20036;-70
2024/02/25 01:47:36;;;;;;;2.83;1.33;;;4.00;67.60;;;;;;5092027;28;20094;-73
2024/02/25 01:50:04;;;;;;;5.63;2.60;;;4.00;67.20;;;;;;5092354;28;20424;-71
2024/02/25 01:52:31;;;;;;;3.80;1.90;;;3.90;66.70;;;;;;5073769;28;20071;-73
2024/02/25 01:54:57;;;;;;;4.03;1.65;;;4.00;67.50;;;;;;5091923;28;20040;-70
2024/02/25 01:57:23;;;;;;;;;;;3.90;66.80;;;;;;5093757;28;20043;-71
2024/02/25 01:59:50;;;;;;;8.63;2.60;;;4.00;66.90;;;;;;5091660;28;20365;-70
2024/02/25 02:02:17;;;;;;;5.57;3.72;;;4.00;67.20;;;;;;5091153;28;20040;-71
2024/02/25 02:04:43;;;;;;;3.28;1.58;;;4.00;67.90;;;;;;5092682;28;20059;-73
2024/02/25 02:07:09;;;;;;;;;;;4.00;67.70;;;;;;5093423;28;20089;-72
2024/02/25 02:09:35;;;;;;;4.82;2.33;;;3.90;66.70;;;;;;5091477;28;20006;-73
2024/02/25 02:12:01;;;;;;;;;;;4.00;67.60;;;;;;5092729;28;20032;-73
2024/02/25 02:14:28;;;;;;;4.80;2.72;;;3.90;66.70;;;;;;5091384;28;19923;-72
2024/02/25 02:16:54;;;;;;;7.82;2.53;;;3.90;68.00;;;;;;5074839;28;20033;-70
2024/02/25 02:19:20;;;;;;;2.53;1.70;;;3.80;68.00;;;;;;5074490;28;20039;-70
2024/02/25 02:21:46;;;;;;;2.95;1.55;;;3.90;68.40;;;;;;5090840;28;20486;-73
2024/02/25 02:24:14;;;;;;;;;;;3.90;68.50;;;;;;5093088;28;20115;-73
2024/02/25 02:26:41;;;;;;;4.20;1.63;;;3.90;68.00;;;;;;5092545;28;20497;-71
2024/02/25 02:29:07;;;;;;;5.80;1.85;;;3.90;68.10;;;;;;5091266;28;20486;-70
2024/02/25 02:31:33;;;;;;;3.10;2.15;;;3.90;68.40;;;;;;5092142;28;20028;-73
2024/02/25 02:33:59;;;;;;;5.25;2.67;;;3.90;68.80;;;;;;5091120;28;20036;-71
2024/02/25 02:36:26;;;;;;;4.95;2.08;;;3.90;68.80;;;;;;5092445;28;20081;-72
2024/02/25 02:38:52;;;;;;;2.75;1.60;;;3.80;68.60;;;;;;5092221;28;20079;-72
2024/02/25 02:41:22;;;;;;;6.13;2.55;;;3.90;68.90;;;;;;5091548;28;20115;-72
2024/02/25 02:43:48;;;;;;;5.28;2.95;;;3.80;68.90;;;;;;5090660;28;20123;-70
2024/02/25 02:46:14;;;;;;;1.33;1.13;;;3.80;68.70;;;;;;5092347;28;20028;-70
2024/02/25 02:48:40;;;;;;;1.38;0.82;;;3.70;68.40;;;;;;5090640;28;20032;-70
2024/02/25 02:51:08;;;;;;;1.23;0.75;;;3.70;68.90;;;;;;5091725;28;20032;-72
2024/02/25 02:53:34;;;;;;;3.28;0.65;;;3.60;69.00;;;;;;5090810;28;20055;-70
2024/02/25 02:56:00;;;;;;;1.45;1.13;;;3.60;69.70;;;;;;5091990;28;20036;-70
2024/02/25 02:58:26;;;;;;;1.25;0.73;;;3.60;69.20;;;;;;5073987;28;20412;-72
2024/02/25 03:00:52;;;;;;;1.17;0.90;;;3.60;68.80;;;;;;5091456;28;20040;-73
2024/02/25 03:03:18;;;;;;;1.38;0.80;;;3.60;68.60;;;;;;5090995;28;20068;-70
2024/02/25 03:05:45;;;;;;;3.47;0.88;;;3.60;68.20;;;;;;5090833;28;20145;-72
2024/02/25 03:08:11;;;;;;;1.75;0.98;;;3.60;68.50;;;;;;5073717;28;20513;-71
2024/02/25 03:10:37;;;;;;;6.72;2.83;;;3.70;68.70;;;;;;5089757;28;20048;-72
2024/02/25 03:13:03;;;;;;;2.47;0.88;;;3.70;68.70;;;;;;5091302;28;20110;-73
2024/02/25 03:15:29;;;;;;;;;;;3.70;68.90;;;;;;5092193;28;20035;-70
2024/02/25 03:17:55;;;;;;;1.60;0.88;;;3.70;68.70;;;;;;5090276;28;19916;-70
2024/02/25 03:20:21;;;;;;;2.30;1.17;;;3.70;69.00;;;;;;5073211;28;20086;-70
2024/02/25 03:22:47;;;;;;;2.65;1.90;;;3.80;69.30;;;;;;5091368;28;20028;-71
2024/02/25 03:25:14;;;;;;;5.30;3.45;;;3.80;68.90;;;;;;5091631;28;20048;-73
2024/02/25 03:27:40;;;;;;;7.00;2.55;;;3.80;68.90;;;;;;5091431;28;20504;-72
2024/02/25 03:30:26;;;;;;;4.68;2.08;;;3.70;68.90;;;;;;5090963;28;20040;-73
2024/02/25 03:32:52;;;;;;;3.50;2.40;;;3.60;68.00;;;;;;5091256;28;20497;-73
2024/02/25 03:35:18;;;;;;;2.00;0.98;;;3.50;67.80;;;;;;5091435;28;20039;-72
2024/02/25 03:37:45;;;;;;;1.45;1.20;;;3.40;67.80;;;;;;5090118;28;20036;-70
2024/02/25 03:40:11;;;;;;;1.92;0.93;;;3.30;67.80;;;;;;5089614;28;20038;-71
2024/02/25 03:42:40;;;;;;;2.67;1.42;;;3.30;67.30;;;;;;5089852;28;20040;-73
2024/02/25 03:45:06;;;;;;;2.00;1.30;;;3.20;67.90;;;;;;5091454;28;20081;-72
2024/02/25 03:47:32;;;;;;;3.08;1.42;;;3.20;68.20;;;;;;5091271;28;20067;-71
2024/02/25 03:49:58;;;;;;;4.53;2.45;;;3.30;68.70;;;;;;5090312;28;20032;-70
2024/02/25 03:52:24;;;;;;;5.28;2.00;;;3.30;68.40;;;;;;5090761;28;20043;-72
2024/02/25 03:54:50;;;;;;;;;;;3.40;68.40;;;;;;5090442;28;20032;-73
2024/02/25 03:57:16;;;;;;;4.75;1.92;;;3.40;68.40;;;;;;5090911;28;20265;-70
2024/02/25 03:59:42;;;;;;;3.08;1.92;;;3.30;68.40;;;;;;5089893;28;20040;-72
2024/02/25 04:02:08;;;;;;;1.63;1.13;;;3.30;68.60;;;;;;5090777;28;20503;-70
2024/02/25 04:04:34;;;;;;;3.13;1.58;;;3.30;69.00;;;;;;5090727;28;20066;-72
2024/02/25 04:07:00;;;;;;;3.70;2.22;;;3.30;68.80;;;;;;5089629;28;20068;-70
2024/02/25 04:09:28;;;;;;;3.50;2.00;;;3.30;69.00;;;;;;5072718;28;20435;-71
2024/02/25 04:11:54;;;;;;;3.38;1.98;;;3.30;68.90;;;;;;5090304;28;20496;-73
2024/02/25 04:14:20;;;;;;;3.83;2.10;;;3.30;68.80;;;;;;5090917;28;20035;-71
2024/02/25 04:16:46;;;;;;;6.97;3.70;;;3.30;68.80;;;;;;5092173;28;20051;-70
2024/02/25 04:19:12;;;;;;;6.00;2.83;;;3.30;68.90;;;;;;5093678;28;20025;-71
2024/02/25 04:21:38;;;;;;;1.92;1.30;;;3.40;68.80;;;;;;5093009;28;20048;-70
2024/02/25 04:24:05;;;;;;;2.80;1.20;;;3.40;68.90;;;;;;5076398;28;20032;-71
2024/02/25 04:26:31;;;;;;;2.83;2.03;;;3.40;68.50;;;;;;5093510;28;20025;-72
2024/02/25 04:28:57;;;;;;;;;;;3.40;68.70;;;;;;5095223;28;20031;-72
2024/02/25 04:31:23;;;;;;;6.10;3.00;;;3.40;68.40;;;;;;5093992;28;19916;-73
2024/02/25 04:33:49;;;;;;;7.03;1.92;;;3.50;68.70;;;;;;5094378;28;20036;-71
2024/02/25 04:36:19;;;;;;;2.17;1.02;;;3.50;68.90;;;;;;5076681;28;20031;-70
2024/02/25 04:38:47;;;;;;;1.92;0.82;;;3.60;68.80;;;;;;5094946;28;20043;-72
2024/02/25 04:41:13;;;;;;;1.13;0.77;;;3.60;69.10;;;;;;5092929;28;20040;-70
2024/02/25 04:43:39;;;;;;;1.95;1.10;;;3.70;69.20;;;;;;5093350;28;20032;-71
2024/02/25 04:46:05;;;;;;;1.70;0.80;;;3.70;69.20;;;;;;5094621;28;20044;-70
2024/02/25 04:48:31;;;;;;;2.17;1.40;;;3.80;69.20;;;;;;5093120;28;20131;-71
2024/02/25 04:50:57;;;;;;;2.90;2.05;;;3.80;69.30;;;;;;5093810;28;20086;-71
2024/02/25 04:53:25;;;;;;;1.98;1.27;;;3.90;69.50;;;;;;5094156;28;20431;-70
2024/02/25 04:55:51;;;;;;;1.73;1.27;;;4.00;69.70;;;;;;5094371;28;20036;-70
2024/02/25 04:58:17;;;;;;;2.20;1.50;;;4.00;69.70;;;;;;5093271;28;20036;-70
2024/02/25 05:00:44;;;;;;;3.33;1.27;;;4.10;69.60;;;;;;5093919;28;20078;-73
2024/02/25 05:03:11;;;;;;;3.65;1.30;;;4.10;69.60;;;;;;5092356;28;20058;-70
2024/02/25 05:05:37;;;;;;;3.85;2.47;;;4.10;69.80;;;;;;5092872;28;20035;-72
2024/02/25 05:08:04;;;;;;;3.20;2.03;;;4.10;69.60;;;;;;5093228;28;20044;-71
2024/02/25 05:10:30;;;;;;;;;;;4.10;69.60;;;;;;5075718;28;20119;-73
2024/02/25 05:12:56;;;;;;;2.72;1.85;;;4.10;69.20;;;;;;5092500;28;19927;-70
2024/02/25 05:15:22;;;;;;;1.38;0.88;;;4.10;69.20;;;;;;5075703;28;20020;-70
2024/02/25 05:17:48;;;;;;;1.75;1.25;;;4.00;69.30;;;;;;5075897;28;20515;-73
2024/02/25 05:20:14;;;;;;;4.50;1.33;;;3.90;69.60;;;;;;5093364;28;20419;-71
2024/02/25 05:22:40;;;;;;;4.43;1.35;;;3.90;69.60;;;;;;5092507;28;20119;-72
2024/02/25 05:25:06;;;;;;;1.70;1.05;;;3.90;69.50;;;;;;5093634;28;20030;-71
2024/02/25 05:27:36;;;;;;;3.65;1.67;;;3.90;69.00;;;;;;5093680;28;20409;-72
2024/02/25 05:30:04;;;;;;;3.90;2.53;;;3.90;69.70;;;;;;5093573;28;20032;-70
2024/02/25 05:32:30;;;;;;;6.57;3.78;;;3.80;68.90;;;;;;5093227;28;20114;-70
2024/02/25 05:34:57;;;;;;;4.97;3.03;;;3.80;69.30;;;;;;5092224;28;20078;-72
2024/02/25 05:37:23;;;;;;;8.90;3.20;;;3.90;69.40;;;;;;5093734;28;20491;-73
2024/02/25 05:39:49;;;;;;;2.55;1.92;;;3.80;69.30;;;;;;5093364;28;20101;-71
2024/02/25 05:42:15;;;;;;;5.80;2.70;;;3.80;68.80;;;;;;5092835;28;20415;-70
2024/02/25 05:44:41;;;;;;;3.35;1.90;;;3.80;69.40;;;;;;5092258;28;20423;-70
2024/02/25 05:47:07;;;;;;;5.60;2.05;;;3.80;69.70;;;;;;5092113;28;20075;-71
2024/02/25 05:49:33;;;;;;;4.50;2.92;;;3.70;70.00;;;;;;5092016;28;20082;-70
2024/02/25 05:51:59;;;;;;;4.18;2.83;;;3.60;69.60;;;;;;5092890;28;20036;-70
2024/02/25 05:54:25;;;;;;;3.55;1.92;;;3.50;70.20;;;;;;5091517;28;20416;-73
2024/02/25 05:56:51;;;;;;;7.07;2.90;;;3.50;70.30;;;;;;5093121;28;20499;-73
2024/02/25 05:59:18;;;;;;;3.38;1.55;;;3.40;71.30;;;;;;5093381;28;20036;-70
2024/02/25 06:02:02;;;;;;;5.72;2.33;;;3.50;70.70;;;;;;5091193;28;20122;-70
2024/02/25 06:04:29;;;;;;;4.10;2.63;;;3.50;70.80;;;;;;5091176;28;20047;-72
2024/02/25 06:06:55;;;;;;;2.72;1.88;;;3.50;70.60;;;;;;5092888;28;20374;-73
2024/02/25 06:09:22;;;;;;;4.18;2.83;;;3.50;70.70;;;;;;5091496;28;20114;-70
2024/02/25 06:11:48;;;;;;;5.03;2.70;;;3.60;70.40;;;;;;5092429;28;20069;-73
2024/02/25 06:14:15;;;;;;;;;;;3.60;70.30;;;;;;5093486;28;20477;-72
2024/02/25 06:16:43;;;;;;;3.78;2.35;;;3.60;69.80;;;;;;5092664;28;19919;-72
2024/02/25 06:19:09;;;;;;;4.05;2.65;;;3.60;69.90;;;;;;5091370;28;20416;-70
2024/02/25 06:21:36;;;;;;;6.63;3.58;;;3.70;70.10;;;;;;5090810;28;20090;-70
2024/02/25 06:24:05;;;;;;;4.32;2.63;;;3.70;70.00;;;;;;5074314;28;20024;-73
2024/02/25 06:26:31;;;;;;;5.65;3.35;;;3.70;70.10;;;;;;5092665;28;20032;-70
2024/02/25 06:28:58;;;;;;;8.15;5.90;;;3.80;70.30;;;;;;5091095;28;20028;-70
2024/02/25 06:31:26;;;;;;;5.47;2.50;;;3.80;70.30;;;;;;5090774;28;20032;-71
2024/02/25 06:33:53;;;;;;;6.53;2.35;;;3.90;69.90;;;;;;5092147;28;20031;-72
2024/02/25 06:36:38;;;;;;;3.00;1.83;;;4.00;69.80;;;;;;5092382;28;20110;-72
2024/02/25 06:39:04;;;;;;;6.03;3.45;;;4.00;69.60;;;;;;5091725;28;20070;-70
2024/02/25 06:41:30;;;;;;;4.13;1.92;;;4.10;69.70;;;;;;5073536;28;20032;-70
2024/02/25 06:43:57;;;;;;;4.50;1.90;;;4.10;69.80;;;;;;5091970;28;20028;-70
2024/02/25 06:46:23;;;;;;;2.17;1.10;;;4.20;69.70;;;;;;5090793;28;20040;-73
2024/02/25 06:48:49;;;;;;;3.55;1.88;;;4.20;69.70;;;;;;5091115;28;20537;-72
2024/02/25 06:51:34;;;;;;;5.45;2.17;;;4.30;69.80;;;;;;5091738;28;20028;-71
2024/02/25 06:54:00;;;;;;;2.95;1.77;;;4.40;69.80;;;;;;5091755;28;20063;-72
2024/02/25 06:56:29;;;;;;;4.70;2.25;;;4.40;69.80;;;;;;5091801;28;20050;-70
2024/02/25 06:58:55;;;;;;;1.73;1.10;;;4.50;69.80;;;;;;5091696;28;20507;-71
2024/02/25 07:01:21;;;;;;;3.70;2.40;;;4.60;69.90;;;;;;5090029;28;20044;-71
2024/02/25 07:03:47;;;;;;;3.00;1.33;;;4.70;70.00;;;;;;5090303;28;20065;-70
2024/02/25 07:06:13;;;;;;;1.80;1.33;;;4.70;69.90;;;;;;5091862;28;20042;-73
2024/02/25 07:08:40;;;;;;;4.65;2.92;;;4.80;69.70;;;;;;5090621;28;20519;-72
2024/02/25 07:11:28;;;;;;;2.65;1.88;;;4.90;69.70;;;;;;5089703;28;20033;-71
2024/02/25 07:13:54;;;;;;;2.88;2.05;;;5.10;69.90;;;;;;5090247;28;20087;-72
2024/02/25 07:16:20;;;;;;;4.07;3.10;;;5.10;69.80;;;;;;5091478;28;20039;-73
2024/02/25 07:18:46;;;;;;;10.23;3.70;;;5.30;69.70;;;;;;5090338;28;20043;-71
2024/02/25 07:21:13;;;;;;;4.03;2.67;;;5.40;69.30;;;;;;5091070;28;20066;-72
2024/02/25 07:23:43;;;;;;;8.98;3.35;;;5.60;68.90;;;;;;5091977;28;20032;-73
2024/02/25 07:26:29;;;;;;;5.28;3.35;;;5.70;68.50;;;;;;5091558;28;20085;-70
2024/02/25 07:28:55;;;;;;;5.60;4.32;;;5.90;68.30;;;;;;5091462;28;20431;-70
2024/02/25 07:31:21;;;;;;;13.77;3.25;;;5.90;68.10;;;;;;5089572;28;20500;-73
2024/02/25 07:33:50;;;;;;;8.52;4.57;;;6.10;68.10;;;;;;5089750;28;20032;-71
2024/02/25 07:36:17;;;;;;;9.73;5.85;;;6.10;68.00;;;;;;5090110;28;20586;-70
2024/02/25 07:38:43;;;;;;;5.38;3.65;;;6.20;67.80;;;;;;5073216;28;20036;-70
2024/02/25 07:41:10;;;;;;;6.43;3.78;;;6.30;67.90;;;;;;5089604;28;20032;-72
2024/02/25 07:43:38;;;;;;;10.60;2.42;;;6.40;67.10;;;;;;5090273;28;20035;-70
2024/02/25 07:46:05;;;;;;;3.80;2.22;;;6.50;67.60;;;;;;5091179;28;20397;-72
2024/02/25 07:48:32;;;;;;;5.03;2.38;;;6.70;67.50;;;;;;5090184;28;20339;-70
2024/02/25 07:50:58;;;;;;;5.65;4.15;;;6.70;67.30;;;;;;5073626;28;20040;-71
2024/02/25 07:53:24;;;;;;;8.27;3.00;;;6.80;67.20;;;;;;5095883;28;20028;-70
2024/02/25 07:55:50;;;;;;;4.45;2.55;;;6.90;66.90;;;;;;5094225;28;20504;-73
2024/02/25 07:58:16;;;;;;;7.03;1.73;;;7.00;67.90;;;;;;5095682;28;20443;-73
2024/02/25 08:00:43;;;;;;;3.78;2.38;;;7.10;66.90;;;;;;5093671;28;20037;-71
2024/02/25 08:03:09;;;;;;;6.45;2.67;;;7.20;67.00;;;;;;5093630;28;20358;-73
2024/02/25 08:05:35;;;;;;;;;;;7.30;65.90;;;;;;5095727;28;20069;-73
2024/02/25 08:08:01;;;;;;;5.82;2.35;;;7.50;65.80;;;;;;5093886;28;19920;-73
2024/02/25 08:10:27;;;;;;;4.03;2.42;;;7.40;64.30;;;;;;5094657;28;20477;-70
2024/02/25 08:12:55;;;;;;;4.15;2.72;;;7.50;64.50;;;;;;5093887;28;20447;-71
2024/02/25 08:15:21;;;;;;;2.47;1.55;;;7.60;64.40;;;;;;5077079;28;20504;-70
2024/02/25 08:17:47;;;;;;;2.65;1.27;;;7.80;63.70;;;;;;5093841;28;20436;-73
2024/02/25 08:20:13;;;;;;;0.75;0.55;;;8.00;63.90;;;;;;5094470;28;20036;-73
2024/02/25 08:22:39;;;;;;;1.08;0.77;;;8.30;63.50;;;;;;5078668;28;20393;-71
2024/02/25 08:25:06;;;;;;;;;;;8.60;62.80;;;;;;5074879;28;20032;-70
2024/02/25 08:27:32;;;;;;;2.08;1.23;;;8.80;62.50;;;;;;5073393;28;19924;-73
2024/02/25 08:30:12;;;;;;;1.70;1.17;;;9.10;61.60;;;;;;5074373;28;20071;-73
2024/02/25 08:32:38;;;;;;;2.10;1.20;;;9.40;59.70;;;;;;5055939;28;20048;-71
2024/02/25 08:35:06;;;;;;;1.33;0.95;;;9.70;59.20;;;;;;5074361;28;20398;-70
2024/02/25 08:37:33;;;;;;;0.90;0.50;;;9.90;56.90;;;;;;5073395;28;20645;-70
2024/02/25 08:39:59;;;;;;;3.42;2.00;;;10.50;57.30;;;;;;5075581;28;20074;-73
2024/02/25 08:42:26;;;;;;;1.77;1.25;;;11.20;56.50;;;;;;5073947;28;20547;-70
2024/02/25 08:44:53;;;;;;;2.30;1.15;;;12.00;54.80;;;;;;5074591;28;20029;-72
2024/02/25 08:47:19;;;;;;;0.60;0.60;;;12.60;53.00;;;;;;5090007;28;20033;-70
2024/02/25 08:49:45;;;;;;;1.25;0.93;;;13.20;50.80;;;;;;5072949;28;20043;-70
2024/02/25 08:52:11;;;;;;;2.53;1.63;;;13.80;49.30;;;;;;5073800;28;20070;-70
2024/02/25 08:54:38;;;;;;;2.65;1.20;;;14.60;47.50;;;;;;5074303;28;20028;-73
2024/02/25 08:59:51;;;;;;;1.48;0.52;;;15.30;44.30;;;;;;5076651;28;20036;-73
2024/02/25 09:02:16;;;;;;;0.35;0.30;;;15.60;44.70;;;;;;5074843;28;20040;-70
2024/02/25 09:04:43;;;;;;;2.00;1.13;;;15.90;43.60;;;;;;5092659;28;20048;-70
2024/02/25 09:07:09;;;;;;;2.08;1.05;;;16.00;41.90;;;;;;5094201;28;20046;-70
2024/02/25 09:09:35;;;;;;;2.40;1.42;;;16.10;41.30;;;;;;5092866;28;20445;-72
2024/02/25 09:12:01;;;;;;;1.95;1.08;;;16.50;40.80;;;;;;5093385;28;20153;-70
2024/02/25 09:14:28;;;;;;;1.38;1.13;;;16.70;40.60;;;;;;5078936;28;20029;-73
2024/02/25 09:16:54;;;;;;;0.77;0.43;;;17.00;39.80;;;;;;5081220;28;20161;-71
2024/02/25 09:19:20;;;;;;;1.08;0.60;;;17.40;39.00;;;;;;5092658;28;20523;-72
2024/02/25 09:21:49;;;;;;;3.28;2.28;;;17.70;38.00;;;;;;5092929;28;20028;-73
2024/02/25 09:24:15;;;;;;;1.73;0.95;;;17.70;37.40;;;;;;5092376;28;20578;-73
2024/02/25 09:26:46;;;;;;;2.17;0.65;;;17.00;38.80;;;;;;5093571;28;20048;-70
2024/02/25 09:29:13;;;;;;;1.08;0.45;;;16.60;39.90;;;;;;5093556;28;20390;-70
2024/02/25 09:31:40;;;;;;;3.30;1.00;;;16.50;39.60;;;;;;5091435;28;20445;-70
2024/02/25 09:34:08;;;;;;;2.63;1.40;;;16.80;38.80;;;;;;5092037;28;20038;-73
2024/02/25 09:36:34;;;;;;;0.20;0.20;;;17.00;37.30;;;;;;5092385;28;20062;-71
2024/02/25 09:39:03;;;;;;;;;;;17.40;37.20;;;;;;5088393;28;20086;-70
2024/02/25 09:41:35;;;;;;;0.13;0.13;;;17.70;35.70;;;;;;5061228;28;19931;-71
2024/02/25 09:44:03;;;;;;;12.68;0.75;;;17.80;36.00;;;;;;5071385;28;20096;-71
2024/02/25 09:46:33;;;;;;;0.10;0.10;;;17.80;35.90;;;;;;5071615;28;20036;-73
2024/02/25 09:49:02;;;;;;;0.88;0.40;;;17.70;35.40;;;;;;5071427;28;20038;-72
2024/02/25 09:51:29;;;;;;;0.40;0.30;;;17.90;35.20;;;;;;5071440;28;20098;-72
2024/02/25 09:53:57;;;;;;;0.40;0.35;;;18.10;34.80;;;;;;5071756;28;20028;-70
2024/02/25 09:56:23;;;;;;;2.20;0.60;;;18.30;33.90;;;;;;5092135;28;20511;-73
2024/02/25 09:58:50;;;;;;;0.73;0.63;;;18.80;33.20;;;;;;5108597;28;20123;-72
2024/02/25 10:01:16;;;;;;;0.30;0.30;;;20.00;32.30;;;;;;5091394;28;20024;-70
2024/02/25 10:03:42;;;;;;;0.47;0.15;;;20.50;29.30;;;;;;5092501;28;20091;-73
2024/02/25 10:06:10;;;;;;;0.90;0.75;;;20.30;30.10;;;;;;5071143;28;20180;-73
2024/02/25 10:08:55;;;;;;;2.75;2.20;;;19.80;30.90;;;;;;5071401;28;20377;-70
2024/02/25 10:11:23;;;;;;;0.40;0.40;;;19.70;31.30;;;;;;5070652;28;20098;-70
2024/02/25 10:13:49;;;;;;;0.88;0.60;;;19.60;31.40;;;;;;5071561;28;20021;-73
2024/02/25 10:16:34;;;;;;;1.25;0.43;;;19.50;32.60;;;;;;5074729;28;20055;-72
2024/02/25 10:19:00;;;;;;;0.25;0.25;;;19.60;32.80;;;;;;5091258;28;20497;-70
2024/02/25 10:21:26;;;;;;;0.57;0.40;;;19.80;31.60;;;;;;5067390;28;20085;-73
2024/02/25 10:23:54;;;;;;;0.10;0.10;;;19.80;30.40;;;;;;5072577;28;20033;-73
2024/02/25 10:26:40;;;;;;;0.25;0.20;;;19.70;30.60;;;;;;5078277;28;20116;-70
2024/02/25 10:29:07;;;;;;;0.20;0.20;;;19.80;30.00;;;;;;5078984;28;20543;-70
2024/02/25 10:31:33;;;;;;;0.32;0.30;;;19.60;30.60;;;;;;5053815;28;20048;-72
2024/02/25 10:34:00;;;;;;;0.65;0.65;;;19.60;29.70;;;;;;5070707;28;20033;-71
2024/02/25 10:36:27;;;;;;;0.40;0.20;;;19.80;28.60;;;;;;5072187;28;20084;-70
2024/02/25 10:38:55;;;;;;;0.50;0.50;;;19.80;29.90;;;;;;5054045;28;20074;-73
2024/02/25 10:41:22;;;;;;;0.20;0.20;;;19.70;29.60;;;;;;5070103;28;20113;-71
2024/02/25 10:44:11;;;;;;;0.45;0.30;;;19.70;29.80;;;;;;5072407;28;20029;-73
2024/02/25 10:46:58;;;;;;;0.10;0.10;;;19.50;29.30;;;;;;5092057;28;20043;-73
2024/02/25 10:49:26;;;;;;;2.17;1.37;;;19.80;30.00;;;;;;5090836;28;20032;-70
2024/02/25 10:51:53;;;;;;;0.73;0.25;;;20.50;29.70;;;;;;5073220;28;20066;-70
2024/02/25 10:54:19;;;;;;;1.75;1.27;;;20.50;28.70;;;;;;5091194;28;20176;-70
2024/02/25 10:56:45;;;;;;;;;;;20.50;28.90;;;;;;5091081;28;20472;-73
2024/02/25 10:59:16;;;;;;;0.20;0.20;;;20.90;27.70;;;;;;5088233;28;19965;-70
2024/02/25 11:01:44;;;;;;;0.43;0.40;;;21.30;27.60;;;;;;5086536;28;20388;-70
2024/02/25 11:04:10;;;;;;;0.10;0.10;;;21.10;28.00;;;;;;5073308;28;20131;-70
2024/02/25 11:09:24;;;;;;;1.55;0.75;;;21.30;28.60;;;;;;5091717;28;20042;-72
2024/02/25 11:12:28;;;;;;;0.45;0.40;;;21.50;28.10;;;;;;5090735;28;20036;-73
2024/02/25 11:15:19;;;;;;;0.25;0.17;;;21.30;27.60;;;;;;5089743;28;20050;-70
2024/02/25 11:17:48;;;;;;;0.30;0.30;;;21.00;28.30;;;;;;5075165;28;20063;-69
2024/02/25 11:20:38;;;;;;;0.10;0.10;;;20.80;28.10;;;;;;5069614;28;20063;-70
2024/02/25 11:23:04;;;;;;;0.45;0.45;;;20.50;28.20;;;;;;5053151;28;20033;-66
2024/02/25 11:25:49;;;;;;;0.38;0.30;;;20.20;28.00;;;;;;5070976;28;20039;-66
2024/02/25 11:28:15;;;;;;;0.20;0.20;;;20.10;29.00;;;;;;5071481;28;20040;-70
2024/02/25 11:31:02;;;;;;;;;;;20.10;29.00;;;;;;5086521;28;20086;-70
2024/02/25 11:33:50;;;;;;;0.45;0.30;;;19.80;29.10;;;;;;5091731;28;19959;-66
2024/02/25 11:36:19;;;;;;;0.20;0.20;;;19.80;29.60;;;;;;5090351;28;20114;-70
2024/02/25 11:38:47;;;;;;;0.20;0.15;;;19.60;30.00;;;;;;5090049;28;20047;-66
2024/02/25 11:41:14;;;;;;;0.40;0.32;;;19.50;29.90;;;;;;5089525;28;20048;-70
2024/02/25 11:43:40;;;;;;;0.47;0.13;;;19.20;30.50;;;;;;5073070;28;20032;-66
2024/02/25 11:46:08;;;;;;;2.00;1.23;;;19.10;30.90;;;;;;5082222;28;20251;-69
2024/02/25 11:48:35;;;;;;;0.20;0.20;;;18.90;31.50;;;;;;5073453;28;20040;-70
2024/02/25 11:51:03;;;;;;;0.63;0.30;;;18.70;30.40;;;;;;5089441;28;20509;-70
2024/02/25 11:53:29;;;;;;;0.35;0.17;;;18.50;31.30;;;;;;5091573;28;20040;-66
2024/02/25 11:55:55;;;;;;;0.95;0.73;;;18.50;31.90;;;;;;5090837;28;20033;-66
2024/02/25 11:58:22;;;;;;;1.40;0.82;;;18.60;33.00;;;;;;5089999;28;20044;-70
2024/02/25 12:00:50;;;;;;;2.25;1.13;;;18.70;31.70;;;;;;5082589;28;20119;-69
2024/02/25 12:03:16;;;;;;;0.88;0.60;;;19.00;31.50;;;;;;5073395;28;20048;-66
2024/02/25 12:05:43;;;;;;;0.55;0.30;;;19.20;31.60;;;;;;5071175;28;20104;-70
2024/02/25 12:08:15;;;;;;;0.10;0.10;;;19.40;31.10;;;;;;5070425;28;20536;-67
2024/02/25 12:10:41;;;;;;;1.63;0.73;;;19.70;30.60;;;;;;5052749;28;20036;-67
2024/02/25 12:13:08;;;;;;;0.20;0.20;;;19.90;29.50;;;;;;5057857;28;20040;-70
2024/02/25 12:15:40;;;;;;;0.63;0.30;;;19.80;29.50;;;;;;5090025;28;20025;-67
2024/02/25 12:18:06;;;;;;;0.47;0.30;;;19.80;29.50;;;;;;5081083;28;20040;-66
2024/02/25 12:20:32;;;;;;;;;;;20.00;29.90;;;;;;5082619;28;20025;-66
2024/02/25 12:22:58;;;;;;;0.73;0.30;;;20.30;29.20;;;;;;5069560;28;19921;-70
2024/02/25 12:25:24;;;;;;;0.10;0.10;;;20.30;29.60;;;;;;5070711;28;20021;-67
2024/02/25 12:27:50;;;;;;;0.32;0.32;;;20.30;29.90;;;;;;5070958;28;20056;-70
2024/02/25 12:30:18;;;;;;;;;;;20.40;29.60;;;;;;5069504;28;20478;-70
2024/02/25 12:32:45;;;;;;;1.83;1.08;;;20.80;28.90;;;;;;5069393;28;20357;-70
2024/02/25 12:35:11;;;;;;;0.90;0.47;;;21.00;29.00;;;;;;5072471;28;20081;-70
2024/02/25 12:37:37;;;;;;;1.92;1.05;;;21.00;28.60;;;;;;5083764;28;20484;-70
2024/02/25 12:40:08;;;;;;;2.13;1.33;;;21.10;28.50;;;;;;5094246;28;20032;-67
2024/02/25 12:42:35;;;;;;;1.20;0.82;;;21.20;28.40;;;;;;5088601;28;20040;-70
2024/02/25 12:45:01;;;;;;;2.15;0.93;;;21.20;28.50;;;;;;5093946;28;20036;-70
2024/02/25 12:47:26;;;;;;;;;;;21.20;28.30;;;;;;5077134;28;20032;-66
2024/02/25 12:49:52;;;;;;;0.35;0.30;;;21.30;28.10;;;;;;5094207;28;19919;-66
2024/02/25 12:52:18;;;;;;;2.05;0.77;;;21.40;28.60;;;;;;5109656;28;20036;-70
2024/02/25 12:54:45;;;;;;;0.30;0.30;;;21.60;27.70;;;;;;5069354;28;20054;-70
2024/02/25 12:57:12;;;;;;;0.35;0.30;;;21.30;28.00;;;;;;5087234;28;20036;-70
2024/02/25 12:59:39;;;;;;;2.25;0.75;;;21.60;27.90;;;;;;5085246;28;20060;-67
2024/02/25 13:04:50;;;;;;;3.10;2.60;;;21.60;27.70;;;;;;5074097;28;20137;-66
2024/02/25 13:07:16;;;;;;;4.38;1.02;;;21.40;28.00;;;;;;5079047;28;20040;-70
2024/02/25 13:09:42;;;;;;;2.50;1.60;;;20.80;28.20;;;;;;5089663;28;20082;-70